sensor_id;sensor_type;location;lat;lon;timestamp;P1;durP1;ratioP1;P2;durP2;ratioP2
51949;SDS011;37974;53.218;6.640;2024-01-15T00:01:47;429.33;;;396.50;;
51949;SDS011;37974;53.218;6.640;2024-01-15T00:04:13;285.20;;;266.17;;
51949;SDS011;37974;53.218;6.640;2024-01-15T00:06:39;429.33;;;391.13;;
51949;SDS011;37974;53.218;6.640;2024-01-15T00:09:04;372.73;;;347.25;;
51949;SDS011;37974;53.218;6.640;2024-01-15T00:11:31;364.77;;;341.42;;
51949;SDS011;37974;53.218;6.640;2024-01-15T00:13:57;547.88;;;508.55;;
51949;SDS011;37974;53.218;6.640;2024-01-15T00:16:23;506.30;;;471.75;;
51949;SDS011;37974;53.218;6.640;2024-01-15T00:18:49;535.38;;;497.92;;
51949;SDS011;37974;53.218;6.640;2024-01-15T00:21:15;618.00;;;571.83;;
51949;SDS011;37974;53.218;6.640;2024-01-15T00:23:42;620.90;;;574.83;;
51949;SDS011;37974;53.218;6.640;2024-01-15T00:26:09;574.40;;;531.63;;
51949;SDS011;37974;53.218;6.640;2024-01-15T00:28:36;572.58;;;532.72;;
51949;SDS011;37974;53.218;6.640;2024-01-15T00:31:02;614.03;;;569.55;;
51949;SDS011;37974;53.218;6.640;2024-01-15T00:33:29;665.08;;;615.65;;
51949;SDS011;37974;53.218;6.640;2024-01-15T00:35:55;557.08;;;518.28;;
51949;SDS011;37974;53.218;6.640;2024-01-15T00:38:21;659.42;;;608.97;;
51949;SDS011;37974;53.218;6.640;2024-01-15T00:40:46;561.85;;;523.30;;
51949;SDS011;37974;53.218;6.640;2024-01-15T00:43:12;664.38;;;614.47;;
51949;SDS011;37974;53.218;6.640;2024-01-15T00:45:38;725.72;;;670.72;;
51949;SDS011;37974;53.218;6.640;2024-01-15T00:48:04;712.47;;;659.20;;
51949;SDS011;37974;53.218;6.640;2024-01-15T00:50:30;620.70;;;575.80;;
51949;SDS011;37974;53.218;6.640;2024-01-15T00:52:55;676.58;;;626.45;;
51949;SDS011;37974;53.218;6.640;2024-01-15T00:55:21;702.95;;;649.75;;
51949;SDS011;37974;53.218;6.640;2024-01-15T00:57:47;673.58;;;623.05;;
51949;SDS011;37974;53.218;6.640;2024-01-15T01:00:13;705.75;;;651.45;;
51949;SDS011;37974;53.218;6.640;2024-01-15T01:02:39;776.83;;;715.00;;
51949;SDS011;37974;53.218;6.640;2024-01-15T01:05:04;762.15;;;703.35;;
51949;SDS011;37974;53.218;6.640;2024-01-15T01:07:30;710.90;;;657.05;;
51949;SDS011;37974;53.218;6.640;2024-01-15T01:09:56;797.38;;;730.35;;
51949;SDS011;37974;53.218;6.640;2024-01-15T01:12:21;671.55;;;621.33;;
51949;SDS011;37974;53.218;6.640;2024-01-15T01:14:47;704.58;;;650.92;;
51949;SDS011;37974;53.218;6.640;2024-01-15T01:17:13;678.15;;;627.75;;
51949;SDS011;37974;53.218;6.640;2024-01-15T01:19:38;678.17;;;627.25;;
51949;SDS011;37974;53.218;6.640;2024-01-15T01:22:04;674.25;;;622.78;;
51949;SDS011;37974;53.218;6.640;2024-01-15T01:24:30;639.72;;;592.95;;
51949;SDS011;37974;53.218;6.640;2024-01-15T01:26:56;731.88;;;674.92;;
51949;SDS011;37974;53.218;6.640;2024-01-15T01:29:21;717.05;;;663.17;;
51949;SDS011;37974;53.218;6.640;2024-01-15T01:31:48;705.65;;;653.28;;
51949;SDS011;37974;53.218;6.640;2024-01-15T01:34:14;732.03;;;675.42;;
51949;SDS011;37974;53.218;6.640;2024-01-15T01:36:41;760.75;;;700.92;;
51949;SDS011;37974;53.218;6.640;2024-01-15T01:39:07;716.20;;;659.40;;
51949;SDS011;37974;53.218;6.640;2024-01-15T01:41:34;758.88;;;696.08;;
51949;SDS011;37974;53.218;6.640;2024-01-15T01:44:00;698.95;;;646.78;;
51949;SDS011;37974;53.218;6.640;2024-01-15T01:46:25;651.05;;;602.78;;
51949;SDS011;37974;53.218;6.640;2024-01-15T01:48:53;625.38;;;579.05;;
51949;SDS011;37974;53.218;6.640;2024-01-15T01:51:21;607.38;;;562.45;;
51949;SDS011;37974;53.218;6.640;2024-01-15T01:53:49;629.78;;;582.70;;
51949;SDS011;37974;53.218;6.640;2024-01-15T01:56:16;601.55;;;556.30;;
51949;SDS011;37974;53.218;6.640;2024-01-15T01:58:43;606.55;;;561.92;;
51949;SDS011;37974;53.218;6.640;2024-01-15T02:01:10;549.75;;;510.55;;
51949;SDS011;37974;53.218;6.640;2024-01-15T02:03:38;563.80;;;523.88;;
51949;SDS011;37974;53.218;6.640;2024-01-15T02:06:05;669.55;;;615.13;;
51949;SDS011;37974;53.218;6.640;2024-01-15T02:08:31;570.28;;;529.47;;
51949;SDS011;37974;53.218;6.640;2024-01-15T02:10:57;574.63;;;533.03;;
51949;SDS011;37974;53.218;6.640;2024-01-15T02:13:23;476.90;;;445.13;;
51949;SDS011;37974;53.218;6.640;2024-01-15T02:15:48;522.75;;;486.55;;
51949;SDS011;37974;53.218;6.640;2024-01-15T02:18:14;487.00;;;452.58;;
51949;SDS011;37974;53.218;6.640;2024-01-15T02:20:40;473.20;;;441.55;;
51949;SDS011;37974;53.218;6.640;2024-01-15T02:25:35;406.30;;;378.67;;
51949;SDS011;37974;53.218;6.640;2024-01-15T02:28:03;345.85;;;323.08;;
51949;SDS011;37974;53.218;6.640;2024-01-15T02:30:29;290.00;;;270.73;;
51949;SDS011;37974;53.218;6.640;2024-01-15T02:32:56;338.70;;;316.73;;
51949;SDS011;37974;53.218;6.640;2024-01-15T02:35:22;313.75;;;293.15;;
51949;SDS011;37974;53.218;6.640;2024-01-15T02:37:47;315.08;;;294.27;;
51949;SDS011;37974;53.218;6.640;2024-01-15T02:40:13;263.13;;;246.65;;
51949;SDS011;37974;53.218;6.640;2024-01-15T02:42:39;234.15;;;219.30;;
51949;SDS011;37974;53.218;6.640;2024-01-15T02:45:04;237.93;;;222.70;;
51949;SDS011;37974;53.218;6.640;2024-01-15T02:47:30;200.98;;;187.82;;
51949;SDS011;37974;53.218;6.640;2024-01-15T02:49:56;196.55;;;184.63;;
51949;SDS011;37974;53.218;6.640;2024-01-15T02:52:21;119.63;;;111.95;;
51949;SDS011;37974;53.218;6.640;2024-01-15T02:54:47;177.75;;;166.80;;
51949;SDS011;37974;53.218;6.640;2024-01-15T02:57:13;180.82;;;169.13;;
51949;SDS011;37974;53.218;6.640;2024-01-15T02:59:38;181.48;;;170.38;;
51949;SDS011;37974;53.218;6.640;2024-01-15T03:02:04;196.90;;;184.32;;
51949;SDS011;37974;53.218;6.640;2024-01-15T03:04:30;178.25;;;167.32;;
51949;SDS011;37974;53.218;6.640;2024-01-15T03:06:55;173.57;;;162.30;;
51949;SDS011;37974;53.218;6.640;2024-01-15T03:09:21;226.32;;;212.25;;
51949;SDS011;37974;53.218;6.640;2024-01-15T03:11:47;302.17;;;281.17;;
51949;SDS011;37974;53.218;6.640;2024-01-15T03:14:13;197.15;;;185.43;;
51949;SDS011;37974;53.218;6.640;2024-01-15T03:16:39;234.40;;;219.80;;
51949;SDS011;37974;53.218;6.640;2024-01-15T03:19:05;204.77;;;192.23;;
51949;SDS011;37974;53.218;6.640;2024-01-15T03:21:31;215.57;;;202.50;;
51949;SDS011;37974;53.218;6.640;2024-01-15T03:23:57;257.70;;;241.90;;
51949;SDS011;37974;53.218;6.640;2024-01-15T03:26:22;276.98;;;259.42;;
51949;SDS011;37974;53.218;6.640;2024-01-15T03:28:48;206.35;;;193.57;;
51949;SDS011;37974;53.218;6.640;2024-01-15T03:31:14;262.25;;;245.32;;
51949;SDS011;37974;53.218;6.640;2024-01-15T03:33:39;280.40;;;263.40;;
51949;SDS011;37974;53.218;6.640;2024-01-15T03:36:05;266.63;;;249.77;;
51949;SDS011;37974;53.218;6.640;2024-01-15T03:38:31;323.75;;;303.45;;
51949;SDS011;37974;53.218;6.640;2024-01-15T03:40:57;402.30;;;376.08;;
51949;SDS011;37974;53.218;6.640;2024-01-15T03:43:22;348.42;;;325.55;;
51949;SDS011;37974;53.218;6.640;2024-01-15T03:45:48;392.50;;;366.88;;
51949;SDS011;37974;53.218;6.640;2024-01-15T03:48:14;393.27;;;367.25;;
51949;SDS011;37974;53.218;6.640;2024-01-15T03:50:40;419.30;;;391.25;;
51949;SDS011;37974;53.218;6.640;2024-01-15T03:53:05;474.77;;;442.15;;
51949;SDS011;37974;53.218;6.640;2024-01-15T03:55:32;424.95;;;395.80;;
51949;SDS011;37974;53.218;6.640;2024-01-15T03:57:57;387.20;;;361.75;;
51949;SDS011;37974;53.218;6.640;2024-01-15T04:00:23;391.88;;;366.35;;
51949;SDS011;37974;53.218;6.640;2024-01-15T04:02:49;352.58;;;329.33;;
51949;SDS011;37974;53.218;6.640;2024-01-15T04:05:15;287.80;;;268.67;;
51949;SDS011;37974;53.218;6.640;2024-01-15T04:07:40;362.63;;;338.00;;
51949;SDS011;37974;53.218;6.640;2024-01-15T04:10:06;287.42;;;269.20;;
51949;SDS011;37974;53.218;6.640;2024-01-15T04:12:32;242.27;;;227.38;;
51949;SDS011;37974;53.218;6.640;2024-01-15T04:14:58;210.38;;;196.43;;
51949;SDS011;37974;53.218;6.640;2024-01-15T04:17:24;175.88;;;164.45;;
51949;SDS011;37974;53.218;6.640;2024-01-15T04:19:49;150.43;;;140.05;;
51949;SDS011;37974;53.218;6.640;2024-01-15T04:22:15;167.35;;;156.95;;
51949;SDS011;37974;53.218;6.640;2024-01-15T04:24:40;175.65;;;163.40;;
51949;SDS011;37974;53.218;6.640;2024-01-15T04:27:06;249.32;;;231.10;;
51949;SDS011;37974;53.218;6.640;2024-01-15T04:29:33;265.10;;;246.35;;
51949;SDS011;37974;53.218;6.640;2024-01-15T04:31:58;385.05;;;351.30;;
51949;SDS011;37974;53.218;6.640;2024-01-15T04:34:24;125.40;;;117.43;;
51949;SDS011;37974;53.218;6.640;2024-01-15T04:36:50;169.57;;;157.80;;
51949;SDS011;37974;53.218;6.640;2024-01-15T04:39:15;166.77;;;155.73;;
51949;SDS011;37974;53.218;6.640;2024-01-15T04:41:41;135.73;;;126.93;;
51949;SDS011;37974;53.218;6.640;2024-01-15T04:44:06;87.90;;;81.43;;
51949;SDS011;37974;53.218;6.640;2024-01-15T04:46:32;62.17;;;57.92;;
51949;SDS011;37974;53.218;6.640;2024-01-15T04:48:58;57.55;;;53.50;;
51949;SDS011;37974;53.218;6.640;2024-01-15T04:51:23;152.93;;;142.00;;
51949;SDS011;37974;53.218;6.640;2024-01-15T04:53:49;159.75;;;148.07;;
51949;SDS011;37974;53.218;6.640;2024-01-15T04:56:15;88.57;;;82.43;;
51949;SDS011;37974;53.218;6.640;2024-01-15T04:58:40;76.45;;;71.47;;
51949;SDS011;37974;53.218;6.640;2024-01-15T05:01:07;136.30;;;126.78;;
51949;SDS011;37974;53.218;6.640;2024-01-15T05:03:33;100.45;;;93.72;;
51949;SDS011;37974;53.218;6.640;2024-01-15T05:05:59;65.05;;;60.95;;
51949;SDS011;37974;53.218;6.640;2024-01-15T05:08:24;76.90;;;71.65;;
51949;SDS011;37974;53.218;6.640;2024-01-15T05:10:50;124.53;;;116.35;;
51949;SDS011;37974;53.218;6.640;2024-01-15T05:13:16;93.55;;;87.45;;
51949;SDS011;37974;53.218;6.640;2024-01-15T05:15:41;152.77;;;143.02;;
51949;SDS011;37974;53.218;6.640;2024-01-15T05:18:07;176.73;;;164.35;;
51949;SDS011;37974;53.218;6.640;2024-01-15T05:20:33;134.38;;;125.80;;
51949;SDS011;37974;53.218;6.640;2024-01-15T05:22:58;119.65;;;111.03;;
51949;SDS011;37974;53.218;6.640;2024-01-15T05:25:24;136.00;;;126.93;;
51949;SDS011;37974;53.218;6.640;2024-01-15T05:27:50;180.07;;;168.73;;
51949;SDS011;37974;53.218;6.640;2024-01-15T05:30:15;165.02;;;154.27;;
51949;SDS011;37974;53.218;6.640;2024-01-15T05:32:41;182.52;;;170.80;;
51949;SDS011;37974;53.218;6.640;2024-01-15T05:35:07;162.10;;;151.95;;
51949;SDS011;37974;53.218;6.640;2024-01-15T05:37:33;152.20;;;142.50;;
51949;SDS011;37974;53.218;6.640;2024-01-15T05:39:58;154.98;;;144.25;;
51949;SDS011;37974;53.218;6.640;2024-01-15T05:42:24;189.30;;;177.95;;
51949;SDS011;37974;53.218;6.640;2024-01-15T05:44:50;178.25;;;166.48;;
51949;SDS011;37974;53.218;6.640;2024-01-15T05:47:16;181.63;;;170.18;;
51949;SDS011;37974;53.218;6.640;2024-01-15T05:49:41;197.75;;;185.57;;
51949;SDS011;37974;53.218;6.640;2024-01-15T05:52:07;223.13;;;208.57;;
51949;SDS011;37974;53.218;6.640;2024-01-15T05:54:33;231.05;;;215.98;;
51949;SDS011;37974;53.218;6.640;2024-01-15T05:56:58;288.92;;;271.15;;
51949;SDS011;37974;53.218;6.640;2024-01-15T05:59:24;276.52;;;258.65;;
51949;SDS011;37974;53.218;6.640;2024-01-15T06:01:50;361.85;;;338.85;;
51949;SDS011;37974;53.218;6.640;2024-01-15T06:04:16;349.67;;;328.30;;
51949;SDS011;37974;53.218;6.640;2024-01-15T06:06:41;400.10;;;373.65;;
51949;SDS011;37974;53.218;6.640;2024-01-15T06:09:07;378.80;;;354.63;;
51949;SDS011;37974;53.218;6.640;2024-01-15T06:11:34;343.13;;;321.23;;
51949;SDS011;37974;53.218;6.640;2024-01-15T06:14:00;323.80;;;303.58;;
51949;SDS011;37974;53.218;6.640;2024-01-15T06:16:25;311.40;;;291.52;;
51949;SDS011;37974;53.218;6.640;2024-01-15T06:18:51;387.13;;;361.98;;
51949;SDS011;37974;53.218;6.640;2024-01-15T06:21:17;315.50;;;295.52;;
51949;SDS011;37974;53.218;6.640;2024-01-15T06:23:43;375.48;;;350.98;;
51949;SDS011;37974;53.218;6.640;2024-01-15T06:26:08;390.75;;;364.98;;
51949;SDS011;37974;53.218;6.640;2024-01-15T06:28:37;402.75;;;375.23;;
51949;SDS011;37974;53.218;6.640;2024-01-15T06:31:02;376.15;;;350.92;;
51949;SDS011;37974;53.218;6.640;2024-01-15T06:33:28;461.17;;;430.17;;
51949;SDS011;37974;53.218;6.640;2024-01-15T06:35:54;478.80;;;446.20;;
51949;SDS011;37974;53.218;6.640;2024-01-15T06:38:21;439.33;;;410.60;;
51949;SDS011;37974;53.218;6.640;2024-01-15T06:40:46;458.80;;;428.13;;
51949;SDS011;37974;53.218;6.640;2024-01-15T06:43:13;608.33;;;564.22;;
51949;SDS011;37974;53.218;6.640;2024-01-15T06:45:41;566.85;;;526.67;;
51949;SDS011;37974;53.218;6.640;2024-01-15T06:48:07;563.10;;;522.00;;
51949;SDS011;37974;53.218;6.640;2024-01-15T06:50:33;540.47;;;502.17;;
51949;SDS011;37974;53.218;6.640;2024-01-15T06:52:58;585.08;;;542.90;;
51949;SDS011;37974;53.218;6.640;2024-01-15T06:55:24;631.63;;;585.08;;
51949;SDS011;37974;53.218;6.640;2024-01-15T06:57:50;746.40;;;688.97;;
51949;SDS011;37974;53.218;6.640;2024-01-15T07:00:17;680.15;;;629.35;;
51949;SDS011;37974;53.218;6.640;2024-01-15T07:02:44;632.72;;;586.15;;
51949;SDS011;37974;53.218;6.640;2024-01-15T07:05:10;652.17;;;603.22;;
51949;SDS011;37974;53.218;6.640;2024-01-15T07:07:36;807.78;;;743.95;;
51949;SDS011;37974;53.218;6.640;2024-01-15T07:10:02;889.03;;;813.55;;
51949;SDS011;37974;53.218;6.640;2024-01-15T07:12:29;796.40;;;733.50;;
51949;SDS011;37974;53.218;6.640;2024-01-15T07:14:55;761.90;;;702.95;;
51949;SDS011;37974;53.218;6.640;2024-01-15T07:17:21;683.42;;;632.20;;
51949;SDS011;37974;53.218;6.640;2024-01-15T07:19:47;643.60;;;596.40;;
51949;SDS011;37974;53.218;6.640;2024-01-15T07:22:13;651.90;;;603.13;;
51949;SDS011;37974;53.218;6.640;2024-01-15T07:24:42;767.65;;;710.00;;
51949;SDS011;37974;53.218;6.640;2024-01-15T07:27:08;831.10;;;765.58;;
51949;SDS011;37974;53.218;6.640;2024-01-15T07:29:34;607.35;;;563.75;;
51949;SDS011;37974;53.218;6.640;2024-01-15T07:32:18;788.38;;;726.80;;
51949;SDS011;37974;53.218;6.640;2024-01-15T07:34:43;699.80;;;647.53;;
51949;SDS011;37974;53.218;6.640;2024-01-15T07:37:09;587.65;;;545.50;;
51949;SDS011;37974;53.218;6.640;2024-01-15T07:39:35;571.63;;;531.45;;
51949;SDS011;37974;53.218;6.640;2024-01-15T07:42:00;558.03;;;518.75;;
51949;SDS011;37974;53.218;6.640;2024-01-15T07:44:26;528.42;;;491.83;;
51949;SDS011;37974;53.218;6.640;2024-01-15T07:46:52;534.58;;;498.58;;
51949;SDS011;37974;53.218;6.640;2024-01-15T07:49:18;643.30;;;595.60;;
51949;SDS011;37974;53.218;6.640;2024-01-15T07:51:44;786.67;;;725.72;;
51949;SDS011;37974;53.218;6.640;2024-01-15T07:54:09;861.03;;;790.53;;
51949;SDS011;37974;53.218;6.640;2024-01-15T07:59:22;730.25;;;675.72;;
51949;SDS011;37974;53.218;6.640;2024-01-15T08:01:48;635.80;;;588.25;;
51949;SDS011;37974;53.218;6.640;2024-01-15T08:04:14;577.13;;;535.85;;
51949;SDS011;37974;53.218;6.640;2024-01-15T08:06:40;607.15;;;562.53;;
51949;SDS011;37974;53.218;6.640;2024-01-15T08:09:05;669.10;;;619.35;;
51949;SDS011;37974;53.218;6.640;2024-01-15T08:11:31;596.33;;;552.85;;
51949;SDS011;37974;53.218;6.640;2024-01-15T08:13:57;602.47;;;558.83;;
51949;SDS011;37974;53.218;6.640;2024-01-15T08:16:23;657.33;;;608.78;;
51949;SDS011;37974;53.218;6.640;2024-01-15T08:18:50;659.03;;;609.55;;
51949;SDS011;37974;53.218;6.640;2024-01-15T08:21:16;662.95;;;614.03;;
51949;SDS011;37974;53.218;6.640;2024-01-15T08:23:41;623.83;;;577.55;;
51949;SDS011;37974;53.218;6.640;2024-01-15T08:26:07;604.08;;;560.45;;
51949;SDS011;37974;53.218;6.640;2024-01-15T08:28:34;582.15;;;539.47;;
51949;SDS011;37974;53.218;6.640;2024-01-15T08:30:59;604.75;;;560.90;;
51949;SDS011;37974;53.218;6.640;2024-01-15T08:33:25;677.67;;;627.60;;
51949;SDS011;37974;53.218;6.640;2024-01-15T08:35:51;662.25;;;612.88;;
51949;SDS011;37974;53.218;6.640;2024-01-15T08:38:17;749.20;;;690.33;;
51949;SDS011;37974;53.218;6.640;2024-01-15T08:40:44;574.55;;;533.50;;
51949;SDS011;37974;53.218;6.640;2024-01-15T08:43:10;606.25;;;561.90;;
51949;SDS011;37974;53.218;6.640;2024-01-15T08:45:35;651.03;;;603.17;;
51949;SDS011;37974;53.218;6.640;2024-01-15T08:48:01;670.90;;;621.03;;
51949;SDS011;37974;53.218;6.640;2024-01-15T08:50:27;660.20;;;611.05;;
51949;SDS011;37974;53.218;6.640;2024-01-15T08:52:53;595.20;;;552.15;;
51949;SDS011;37974;53.218;6.640;2024-01-15T08:55:19;558.40;;;519.22;;
51949;SDS011;37974;53.218;6.640;2024-01-15T08:57:47;570.85;;;528.65;;
51949;SDS011;37974;53.218;6.640;2024-01-15T09:00:13;597.33;;;554.60;;
51949;SDS011;37974;53.218;6.640;2024-01-15T09:02:39;592.58;;;549.67;;
51949;SDS011;37974;53.218;6.640;2024-01-15T09:05:05;602.85;;;559.80;;
51949;SDS011;37974;53.218;6.640;2024-01-15T09:07:32;551.92;;;513.33;;
51949;SDS011;37974;53.218;6.640;2024-01-15T09:09:57;558.38;;;519.83;;
51949;SDS011;37974;53.218;6.640;2024-01-15T09:12:24;552.97;;;514.47;;
51949;SDS011;37974;53.218;6.640;2024-01-15T09:14:51;597.00;;;554.13;;
51949;SDS011;37974;53.218;6.640;2024-01-15T09:17:17;661.13;;;612.13;;
51949;SDS011;37974;53.218;6.640;2024-01-15T09:19:43;623.47;;;578.15;;
51949;SDS011;37974;53.218;6.640;2024-01-15T09:22:09;711.50;;;658.72;;
51949;SDS011;37974;53.218;6.640;2024-01-15T09:24:35;601.42;;;557.67;;
51949;SDS011;37974;53.218;6.640;2024-01-15T09:27:01;571.88;;;532.17;;
51949;SDS011;37974;53.218;6.640;2024-01-15T09:29:27;644.10;;;597.10;;
51949;SDS011;37974;53.218;6.640;2024-01-15T09:31:53;632.78;;;587.03;;
51949;SDS011;37974;53.218;6.640;2024-01-15T09:34:20;578.95;;;537.20;;
51949;SDS011;37974;53.218;6.640;2024-01-15T09:36:46;559.08;;;519.75;;
51949;SDS011;37974;53.218;6.640;2024-01-15T09:39:12;553.13;;;515.25;;
51949;SDS011;37974;53.218;6.640;2024-01-15T09:41:38;575.50;;;535.30;;
51949;SDS011;37974;53.218;6.640;2024-01-15T09:44:04;640.83;;;594.05;;
51949;SDS011;37974;53.218;6.640;2024-01-15T09:46:32;586.28;;;544.42;;
51949;SDS011;37974;53.218;6.640;2024-01-15T09:48:59;557.80;;;518.72;;
51949;SDS011;37974;53.218;6.640;2024-01-15T09:51:25;638.28;;;591.10;;
51949;SDS011;37974;53.218;6.640;2024-01-15T09:53:51;630.25;;;584.70;;
51949;SDS011;37974;53.218;6.640;2024-01-15T09:56:17;610.80;;;566.42;;
51949;SDS011;37974;53.218;6.640;2024-01-15T09:58:43;580.17;;;538.47;;
51949;SDS011;37974;53.218;6.640;2024-01-15T10:01:09;612.40;;;568.05;;
51949;SDS011;37974;53.218;6.640;2024-01-15T10:03:36;577.60;;;536.10;;
51949;SDS011;37974;53.218;6.640;2024-01-15T10:06:04;573.17;;;532.50;;
51949;SDS011;37974;53.218;6.640;2024-01-15T10:08:31;467.55;;;436.60;;
51949;SDS011;37974;53.218;6.640;2024-01-15T10:10:57;502.02;;;467.77;;
51949;SDS011;37974;53.218;6.640;2024-01-15T10:13:23;447.20;;;417.50;;
51949;SDS011;37974;53.218;6.640;2024-01-15T10:15:49;501.75;;;467.13;;
51949;SDS011;37974;53.218;6.640;2024-01-15T10:18:15;519.88;;;484.02;;
51949;SDS011;37974;53.218;6.640;2024-01-15T10:20:41;556.58;;;517.83;;
51949;SDS011;37974;53.218;6.640;2024-01-15T10:23:07;480.73;;;448.48;;
51949;SDS011;37974;53.218;6.640;2024-01-15T10:25:35;531.50;;;494.65;;
51949;SDS011;37974;53.218;6.640;2024-01-15T10:28:01;503.17;;;469.48;;
51949;SDS011;37974;53.218;6.640;2024-01-15T10:30:28;570.30;;;529.70;;
51949;SDS011;37974;53.218;6.640;2024-01-15T10:32:59;603.83;;;560.58;;
51949;SDS011;37974;53.218;6.640;2024-01-15T10:35:27;599.17;;;556.72;;
51949;SDS011;37974;53.218;6.640;2024-01-15T10:37:54;576.40;;;535.47;;
51949;SDS011;37974;53.218;6.640;2024-01-15T10:40:20;590.15;;;547.60;;
51949;SDS011;37974;53.218;6.640;2024-01-15T10:42:45;629.90;;;584.50;;
51949;SDS011;37974;53.218;6.640;2024-01-15T10:45:13;717.95;;;663.80;;
51949;SDS011;37974;53.218;6.640;2024-01-15T10:47:39;755.15;;;697.22;;
51949;SDS011;37974;53.218;6.640;2024-01-15T10:50:06;657.25;;;608.33;;
51949;SDS011;37974;53.218;6.640;2024-01-15T10:52:34;491.70;;;458.63;;
51949;SDS011;37974;53.218;6.640;2024-01-15T10:55:01;408.77;;;382.58;;
51949;SDS011;37974;53.218;6.640;2024-01-15T10:57:29;430.38;;;402.48;;
51949;SDS011;37974;53.218;6.640;2024-01-15T10:59:55;484.67;;;448.92;;
51949;SDS011;37974;53.218;6.640;2024-01-15T11:02:21;340.35;;;319.90;;
51949;SDS011;37974;53.218;6.640;2024-01-15T11:04:47;413.08;;;386.30;;
51949;SDS011;37974;53.218;6.640;2024-01-15T11:07:13;442.80;;;414.67;;
51949;SDS011;37974;53.218;6.640;2024-01-15T11:09:39;446.83;;;418.55;;
51949;SDS011;37974;53.218;6.640;2024-01-15T11:12:07;454.55;;;424.65;;
51949;SDS011;37974;53.218;6.640;2024-01-15T11:17:04;540.90;;;504.05;;
51949;SDS011;37974;53.218;6.640;2024-01-15T11:19:35;524.03;;;488.80;;
51949;SDS011;37974;53.218;6.640;2024-01-15T11:22:03;495.30;;;462.55;;
51949;SDS011;37974;53.218;6.640;2024-01-15T11:24:34;537.92;;;501.05;;
51949;SDS011;37974;53.218;6.640;2024-01-15T11:27:07;549.17;;;510.98;;
51949;SDS011;37974;53.218;6.640;2024-01-15T11:29:34;506.48;;;472.58;;
51949;SDS011;37974;53.218;6.640;2024-01-15T11:32:07;454.80;;;425.10;;
51949;SDS011;37974;53.218;6.640;2024-01-15T11:39:43;327.02;;;307.15;;
51949;SDS011;37974;53.218;6.640;2024-01-15T11:42:09;336.58;;;315.05;;
51949;SDS011;37974;53.218;6.640;2024-01-15T11:44:37;280.50;;;264.05;;
51949;SDS011;37974;53.218;6.640;2024-01-15T11:47:04;231.23;;;218.00;;
51949;SDS011;37974;53.218;6.640;2024-01-15T11:52:33;324.05;;;304.27;;
51949;SDS011;37974;53.218;6.640;2024-01-15T11:57:42;415.80;;;389.48;;
51949;SDS011;37974;53.218;6.640;2024-01-15T12:00:11;486.33;;;451.92;;
51949;SDS011;37974;53.218;6.640;2024-01-15T12:02:39;349.27;;;327.88;;
51949;SDS011;37974;53.218;6.640;2024-01-15T12:05:07;318.88;;;300.27;;
51949;SDS011;37974;53.218;6.640;2024-01-15T12:07:33;434.10;;;404.42;;
51949;SDS011;37974;53.218;6.640;2024-01-15T12:10:00;408.27;;;382.23;;
51949;SDS011;37974;53.218;6.640;2024-01-15T12:12:30;468.85;;;436.95;;
51949;SDS011;37974;53.218;6.640;2024-01-15T12:15:05;414.33;;;387.63;;
51949;SDS011;37974;53.218;6.640;2024-01-15T12:17:31;382.13;;;358.63;;
51949;SDS011;37974;53.218;6.640;2024-01-15T12:19:57;537.25;;;498.23;;
51949;SDS011;37974;53.218;6.640;2024-01-15T12:22:23;508.23;;;474.15;;
51949;SDS011;37974;53.218;6.640;2024-01-15T12:24:48;537.15;;;500.10;;
51949;SDS011;37974;53.218;6.640;2024-01-15T12:27:14;570.47;;;530.58;;
51949;SDS011;37974;53.218;6.640;2024-01-15T12:29:40;591.60;;;548.30;;
51949;SDS011;37974;53.218;6.640;2024-01-15T12:32:06;568.75;;;529.38;;
51949;SDS011;37974;53.218;6.640;2024-01-15T12:34:33;527.40;;;491.67;;
51949;SDS011;37974;53.218;6.640;2024-01-15T12:36:58;528.58;;;492.55;;
51949;SDS011;37974;53.218;6.640;2024-01-15T12:39:24;603.50;;;560.58;;
51949;SDS011;37974;53.218;6.640;2024-01-15T12:41:51;566.45;;;526.10;;
51949;SDS011;37974;53.218;6.640;2024-01-15T12:44:16;497.33;;;463.95;;
51949;SDS011;37974;53.218;6.640;2024-01-15T12:46:42;434.70;;;406.05;;
51949;SDS011;37974;53.218;6.640;2024-01-15T12:49:08;376.30;;;351.92;;
51949;SDS011;37974;53.218;6.640;2024-01-15T12:51:34;282.83;;;265.33;;
51949;SDS011;37974;53.218;6.640;2024-01-15T12:53:59;228.55;;;214.77;;
51949;SDS011;37974;53.218;6.640;2024-01-15T12:56:25;190.88;;;178.75;;
51949;SDS011;37974;53.218;6.640;2024-01-15T12:58:51;182.80;;;171.55;;
51949;SDS011;37974;53.218;6.640;2024-01-15T13:01:17;186.50;;;174.18;;
51949;SDS011;37974;53.218;6.640;2024-01-15T13:03:43;121.60;;;113.43;;
51949;SDS011;37974;53.218;6.640;2024-01-15T13:06:08;132.20;;;123.15;;
51949;SDS011;37974;53.218;6.640;2024-01-15T13:08:34;165.00;;;154.15;;
51949;SDS011;37974;53.218;6.640;2024-01-15T13:11:00;114.78;;;107.25;;
51949;SDS011;37974;53.218;6.640;2024-01-15T13:13:26;142.98;;;133.82;;
51949;SDS011;37974;53.218;6.640;2024-01-15T13:15:52;98.07;;;91.47;;
51949;SDS011;37974;53.218;6.640;2024-01-15T13:18:18;87.10;;;80.55;;
51949;SDS011;37974;53.218;6.640;2024-01-15T13:20:44;280.70;;;260.92;;
51949;SDS011;37974;53.218;6.640;2024-01-15T13:23:11;123.15;;;114.75;;
51949;SDS011;37974;53.218;6.640;2024-01-15T13:25:36;89.07;;;82.70;;
51949;SDS011;37974;53.218;6.640;2024-01-15T13:28:04;116.75;;;109.03;;
51949;SDS011;37974;53.218;6.640;2024-01-15T13:30:30;204.10;;;190.60;;
51949;SDS011;37974;53.218;6.640;2024-01-15T13:32:56;196.70;;;183.68;;
51949;SDS011;37974;53.218;6.640;2024-01-15T13:35:23;230.63;;;215.98;;
51949;SDS011;37974;53.218;6.640;2024-01-15T13:37:48;273.17;;;256.42;;
51949;SDS011;37974;53.218;6.640;2024-01-15T13:40:14;230.63;;;216.18;;
51949;SDS011;37974;53.218;6.640;2024-01-15T13:42:45;254.48;;;238.45;;
51949;SDS011;37974;53.218;6.640;2024-01-15T13:45:11;232.20;;;217.63;;
51949;SDS011;37974;53.218;6.640;2024-01-15T13:47:39;189.40;;;176.50;;
51949;SDS011;37974;53.218;6.640;2024-01-15T13:50:07;138.48;;;129.93;;
51949;SDS011;37974;53.218;6.640;2024-01-15T13:52:33;135.27;;;126.50;;
51949;SDS011;37974;53.218;6.640;2024-01-15T13:54:59;146.52;;;137.27;;
51949;SDS011;37974;53.218;6.640;2024-01-15T13:57:25;81.10;;;75.78;;
51949;SDS011;37974;53.218;6.640;2024-01-15T13:59:51;108.53;;;101.82;;
51949;SDS011;37974;53.218;6.640;2024-01-15T14:02:16;130.75;;;122.40;;
51949;SDS011;37974;53.218;6.640;2024-01-15T14:04:42;196.18;;;183.57;;
51949;SDS011;37974;53.218;6.640;2024-01-15T14:07:08;178.77;;;167.50;;
51949;SDS011;37974;53.218;6.640;2024-01-15T14:09:34;208.32;;;194.50;;
51949;SDS011;37974;53.218;6.640;2024-01-15T14:11:59;240.40;;;225.60;;